BEL2DF EBBR-EPWA
Flight info
| Callsign | BEL2DF |
|---|---|
| Flight time | 1h 39m |
| Altitude | 19000 |
| Route | LNO M170 KENUM/N0446F390 N853 ONUNE DCT LARBU DCT SUBIX DCT MOLIL DCT VEMAL DCT BIMPA |
| Aircraft | A20N/M-SDE2E3FGHIRWXY/LB1 |
Departure
| Time | 2026-05-04 18:31 |
|---|---|
| Airport | Brussels Airport (EBBR) |
Arrival
| Time | 2026-05-04 20:10 |
|---|---|
| Airport | Warsaw Chopin Airport (EPWA) |
| Time | Latitude | Longitude | Altitude | Speed | Heading |
|---|---|---|---|---|---|
| 2026-05-04 18:20 | 50.90190 | 4.48299 | 136 ft | 0 kts | 336° |
| 2026-05-04 18:21 | 50.90176 | 4.48309 | 136 ft | 2 kts | 336° |
| 2026-05-04 18:21 | 50.90165 | 4.48317 | 136 ft | 1 kts | 336° |
| 2026-05-04 18:22 | 50.90152 | 4.48327 | 137 ft | 1 kts | 321° |
| 2026-05-04 18:22 | 50.90145 | 4.48344 | 137 ft | 2 kts | 288° |
| 2026-05-04 18:22 | 50.90138 | 4.48361 | 137 ft | 1 kts | 328° |
| 2026-05-04 18:22 | 50.90125 | 4.48367 | 138 ft | 1 kts | 7° |
| 2026-05-04 18:23 | 50.90113 | 4.48359 | 138 ft | 1 kts | 46° |
| 2026-05-04 18:23 | 50.90107 | 4.48342 | 138 ft | 1 kts | 86° |
| 2026-05-04 18:23 | 50.90107 | 4.48328 | 138 ft | 1 kts | 90° |
| 2026-05-04 18:23 | 50.90107 | 4.48325 | 138 ft | 0 kts | 90° |
| 2026-05-04 18:26 | 50.90107 | 4.48326 | 138 ft | 0 kts | 89° |
| 2026-05-04 18:27 | 50.90110 | 4.48338 | 137 ft | 3 kts | 65° |
| 2026-05-04 18:27 | 50.90128 | 4.48397 | 138 ft | 8 kts | 65° |
| 2026-05-04 18:27 | 50.90158 | 4.48499 | 138 ft | 12 kts | 63° |
| 2026-05-04 18:27 | 50.90204 | 4.48638 | 138 ft | 15 kts | 64° |
| 2026-05-04 18:28 | 50.90256 | 4.48813 | 138 ft | 19 kts | 66° |
| 2026-05-04 18:28 | 50.90315 | 4.49016 | 139 ft | 21 kts | 66° |
| 2026-05-04 18:28 | 50.90380 | 4.49241 | 138 ft | 22 kts | 65° |
| 2026-05-04 18:28 | 50.90441 | 4.49455 | 137 ft | 16 kts | 66° |
| 2026-05-04 18:29 | 50.90504 | 4.49602 | 136 ft | 16 kts | 26° |
| 2026-05-04 18:29 | 50.90625 | 4.49662 | 133 ft | 19 kts | 16° |
| 2026-05-04 18:29 | 50.90769 | 4.49724 | 128 ft | 22 kts | 16° |
| 2026-05-04 18:29 | 50.90886 | 4.49777 | 126 ft | 17 kts | 17° |
| 2026-05-04 18:30 | 50.91099 | 4.49942 | 121 ft | 14 kts | 358° |
| 2026-05-04 18:30 | 50.91129 | 4.49846 | 121 ft | 11 kts | 249° |
| 2026-05-04 18:30 | 50.91123 | 4.49825 | 121 ft | 0 kts | 246° |
| 2026-05-04 18:31 | 50.91056 | 4.49595 | 122 ft | 61 kts | 246° |
| 2026-05-04 18:31 | 50.90772 | 4.48616 | 125 ft | 132 kts | 246° |
| 2026-05-04 18:31 | 50.90327 | 4.47052 | 370 ft | 166 kts | 246° |
| 2026-05-04 18:31 | 50.89859 | 4.45400 | 1049 ft | 169 kts | 246° |
| 2026-05-04 18:32 | 50.89373 | 4.43712 | 1784 ft | 171 kts | 244° |
| 2026-05-04 18:32 | 50.88647 | 4.42213 | 2362 ft | 181 kts | 208° |
| 2026-05-04 18:32 | 50.87406 | 4.41988 | 2877 ft | 190 kts | 159° |
| 2026-05-04 18:32 | 50.86374 | 4.43306 | 3410 ft | 202 kts | 126° |
| 2026-05-04 18:33 | 50.85468 | 4.45159 | 3932 ft | 224 kts | 127° |
| 2026-05-04 18:33 | 50.84418 | 4.47123 | 4567 ft | 243 kts | 130° |
| 2026-05-04 18:33 | 50.83315 | 4.49225 | 5215 ft | 261 kts | 123° |
| 2026-05-04 18:33 | 50.82476 | 4.51823 | 5989 ft | 271 kts | 109° |
| 2026-05-04 18:34 | 50.81898 | 4.54633 | 6943 ft | 274 kts | 105° |
| 2026-05-04 18:34 | 50.81356 | 4.57516 | 7892 ft | 277 kts | 105° |
| 2026-05-04 18:34 | 50.80804 | 4.60438 | 8860 ft | 281 kts | 105° |
| 2026-05-04 18:34 | 50.80235 | 4.63407 | 9781 ft | 285 kts | 105° |
| 2026-05-04 18:35 | 50.79655 | 4.66391 | 10581 ft | 293 kts | 105° |
| 2026-05-04 18:35 | 50.79042 | 4.69525 | 11098 ft | 310 kts | 105° |
| 2026-05-04 18:35 | 50.78386 | 4.72884 | 11561 ft | 328 kts | 106° |
| 2026-05-04 18:35 | 50.77688 | 4.76423 | 11964 ft | 346 kts | 106° |
| 2026-05-04 18:36 | 50.76958 | 4.80114 | 12350 ft | 364 kts | 106° |
| 2026-05-04 18:36 | 50.76188 | 4.84002 | 12879 ft | 376 kts | 106° |
| 2026-05-04 18:36 | 50.75401 | 4.87958 | 13639 ft | 380 kts | 106° |
| 2026-05-04 18:36 | 50.74608 | 4.91947 | 14392 ft | 383 kts | 106° |
| 2026-05-04 18:37 | 50.73812 | 4.95942 | 15115 ft | 386 kts | 107° |
| 2026-05-04 18:37 | 50.73012 | 4.99965 | 15822 ft | 390 kts | 107° |
| 2026-05-04 18:37 | 50.72185 | 5.04103 | 16519 ft | 393 kts | 107° |
| 2026-05-04 18:37 | 50.71363 | 5.08212 | 17205 ft | 396 kts | 107° |
| 2026-05-04 18:38 | 50.70534 | 5.12354 | 17861 ft | 399 kts | 108° |
| 2026-05-04 18:38 | 50.69692 | 5.16543 | 18475 ft | 402 kts | 108° |
| 2026-05-04 18:38 | 50.68848 | 5.20717 | 18858 ft | 405 kts | 108° |
| 2026-05-04 18:38 | 50.67985 | 5.24984 | 18923 ft | 405 kts | 108° |
| 2026-05-04 18:39 | 50.67125 | 5.29244 | 18924 ft | 406 kts | 108° |
| 2026-05-04 18:39 | 50.66270 | 5.33461 | 18933 ft | 406 kts | 108° |
| 2026-05-04 18:39 | 50.65401 | 5.37733 | 18937 ft | 407 kts | 109° |
| 2026-05-04 18:39 | 50.64538 | 5.41961 | 18941 ft | 406 kts | 109° |
| 2026-05-04 18:40 | 50.63673 | 5.46209 | 18940 ft | 407 kts | 109° |
| 2026-05-04 18:40 | 50.62814 | 5.50421 | 18943 ft | 409 kts | 109° |
| 2026-05-04 18:40 | 50.61938 | 5.54694 | 18943 ft | 410 kts | 109° |
| 2026-05-04 18:40 | 50.61059 | 5.58968 | 18954 ft | 411 kts | 109° |
| 2026-05-04 18:41 | 50.60179 | 5.63233 | 18957 ft | 411 kts | 109° |
| 2026-05-04 18:41 | 50.59472 | 5.67603 | 18934 ft | 414 kts | 100° |
| 2026-05-04 18:41 | 50.59401 | 5.72152 | 18954 ft | 417 kts | 86° |
| 2026-05-04 18:41 | 50.59946 | 5.76414 | 18951 ft | 419 kts | 74° |
| 2026-05-04 18:42 | 50.61003 | 5.80753 | 18953 ft | 422 kts | 69° |
| 2026-05-04 18:42 | 50.62084 | 5.84828 | 18955 ft | 425 kts | 69° |
| 2026-05-04 18:42 | 50.63237 | 5.89157 | 19342 ft | 431 kts | 69° |
| 2026-05-04 18:42 | 50.64376 | 5.93477 | 20038 ft | 432 kts | 69° |
| 2026-05-04 18:43 | 50.65480 | 5.97710 | 20606 ft | 435 kts | 69° |
| 2026-05-04 18:43 | 50.66631 | 6.02163 | 21143 ft | 439 kts | 69° |
| 2026-05-04 18:43 | 50.67770 | 6.06590 | 21655 ft | 444 kts | 69° |
| 2026-05-04 18:43 | 50.68947 | 6.11174 | 22151 ft | 448 kts | 69° |
| 2026-05-04 18:44 | 50.70110 | 6.15709 | 22650 ft | 452 kts | 69° |
| 2026-05-04 18:44 | 50.70924 | 6.18760 | 22970 ft | 455 kts | 66° |
| 2026-05-04 18:44 | 50.73076 | 6.24497 | 23578 ft | 462 kts | 54° |
| 2026-05-04 18:44 | 50.75202 | 6.28395 | 24046 ft | 467 kts | 45° |
| 2026-05-04 18:45 | 50.77579 | 6.31953 | 24506 ft | 471 kts | 43° |
| 2026-05-04 18:45 | 50.79995 | 6.35413 | 24923 ft | 475 kts | 42° |
| 2026-05-04 18:45 | 50.82493 | 6.38978 | 25322 ft | 479 kts | 42° |
| 2026-05-04 18:45 | 50.84958 | 6.42525 | 25743 ft | 482 kts | 43° |
| 2026-05-04 18:46 | 50.87440 | 6.46124 | 26564 ft | 476 kts | 43° |
| 2026-05-04 18:46 | 50.89843 | 6.49627 | 27380 ft | 470 kts | 43° |
| 2026-05-04 18:46 | 50.92253 | 6.53156 | 27935 ft | 470 kts | 43° |
| 2026-05-04 18:46 | 50.94696 | 6.56738 | 28424 ft | 472 kts | 43° |
| 2026-05-04 18:47 | 50.97136 | 6.60326 | 28944 ft | 472 kts | 43° |
| 2026-05-04 18:47 | 50.99553 | 6.63903 | 29490 ft | 472 kts | 44° |
| 2026-05-04 18:47 | 51.01872 | 6.67637 | 30014 ft | 472 kts | 49° |
| 2026-05-04 18:47 | 51.04018 | 6.71554 | 30536 ft | 471 kts | 53° |
| 2026-05-04 18:48 | 51.06018 | 6.75636 | 31037 ft | 470 kts | 54° |
| 2026-05-04 18:48 | 51.07840 | 6.79502 | 31509 ft | 470 kts | 55° |
| 2026-05-04 18:48 | 51.09761 | 6.83606 | 32022 ft | 469 kts | 55° |
| 2026-05-04 18:48 | 51.11742 | 6.87820 | 32508 ft | 468 kts | 55° |
| 2026-05-04 18:49 | 51.13573 | 6.91709 | 32934 ft | 467 kts | 54° |
| 2026-05-04 18:49 | 51.15558 | 6.95921 | 33382 ft | 467 kts | 54° |
| 2026-05-04 18:49 | 51.17433 | 6.99906 | 33760 ft | 467 kts | 54° |
| 2026-05-04 18:49 | 51.19482 | 7.04264 | 34136 ft | 467 kts | 54° |
| 2026-05-04 18:50 | 51.21292 | 7.08117 | 34473 ft | 467 kts | 55° |
| 2026-05-04 18:50 | 51.23225 | 7.12251 | 34822 ft | 468 kts | 55° |
| 2026-05-04 18:50 | 51.25164 | 7.16398 | 35109 ft | 468 kts | 55° |
| 2026-05-04 18:50 | 51.27113 | 7.20574 | 35386 ft | 467 kts | 54° |
| 2026-05-04 18:51 | 51.28773 | 7.24140 | 35634 ft | 466 kts | 54° |
| 2026-05-04 18:51 | 51.32324 | 7.31777 | 36149 ft | 464 kts | 54° |
| 2026-05-04 18:51 | 51.34265 | 7.35957 | 36418 ft | 462 kts | 54° |
| 2026-05-04 18:52 | 51.36631 | 7.41564 | 36728 ft | 460 kts | 59° |
| 2026-05-04 18:52 | 51.37726 | 7.44557 | 36914 ft | 459 kts | 62° |
| 2026-05-04 18:52 | 51.39632 | 7.50550 | 37285 ft | 456 kts | 65° |
| 2026-05-04 18:52 | 51.40999 | 7.55129 | 37567 ft | 455 kts | 65° |
| 2026-05-04 18:53 | 51.42344 | 7.59672 | 37853 ft | 454 kts | 65° |
| 2026-05-04 18:53 | 51.43536 | 7.64318 | 38101 ft | 451 kts | 74° |
| 2026-05-04 18:53 | 51.44404 | 7.69172 | 38350 ft | 449 kts | 77° |
| 2026-05-04 18:53 | 51.45183 | 7.73996 | 38573 ft | 448 kts | 78° |
| 2026-05-04 18:54 | 51.45935 | 7.78697 | 38776 ft | 448 kts | 78° |
| 2026-05-04 18:54 | 51.46717 | 7.83552 | 38936 ft | 448 kts | 77° |
| 2026-05-04 18:54 | 51.47241 | 7.86764 | 38954 ft | 448 kts | 77° |
| 2026-05-04 18:55 | 51.49105 | 7.98098 | 38971 ft | 449 kts | 77° |
| 2026-05-04 18:55 | 51.51494 | 8.12613 | 38951 ft | 449 kts | 77° |
| 2026-05-04 18:56 | 51.53082 | 8.22315 | 38952 ft | 449 kts | 77° |
| 2026-05-04 18:56 | 51.54394 | 8.30364 | 38954 ft | 450 kts | 77° |
| 2026-05-04 18:57 | 51.56233 | 8.41726 | 38948 ft | 450 kts | 77° |
| 2026-05-04 18:57 | 51.57794 | 8.51426 | 38945 ft | 450 kts | 77° |
| 2026-05-04 18:58 | 51.59347 | 8.61143 | 38959 ft | 450 kts | 77° |
| 2026-05-04 18:58 | 51.60882 | 8.70790 | 38959 ft | 450 kts | 77° |
| 2026-05-04 18:59 | 51.62183 | 8.79015 | 38956 ft | 449 kts | 77° |
| 2026-05-04 18:59 | 51.63971 | 8.90375 | 38956 ft | 450 kts | 77° |
| 2026-05-04 19:00 | 51.65247 | 8.98526 | 38956 ft | 449 kts | 78° |
| 2026-05-04 19:00 | 51.67016 | 9.09915 | 38948 ft | 451 kts | 77° |
| 2026-05-04 19:01 | 51.68517 | 9.19646 | 38969 ft | 451 kts | 77° |
| 2026-05-04 19:01 | 51.70021 | 9.29452 | 38957 ft | 451 kts | 77° |
| 2026-05-04 19:02 | 51.71524 | 9.39301 | 38963 ft | 452 kts | 77° |
| 2026-05-04 19:02 | 51.73004 | 9.49064 | 38957 ft | 451 kts | 77° |
| 2026-05-04 19:03 | 51.74484 | 9.58880 | 38938 ft | 451 kts | 77° |
| 2026-05-04 19:03 | 51.75960 | 9.68727 | 38950 ft | 451 kts | 78° |
| 2026-05-04 19:04 | 51.77432 | 9.78617 | 38943 ft | 451 kts | 78° |
| 2026-05-04 19:04 | 51.78648 | 9.86834 | 38947 ft | 451 kts | 78° |
| 2026-05-04 19:05 | 51.80336 | 9.98326 | 38941 ft | 451 kts | 78° |
| 2026-05-04 19:05 | 51.81778 | 10.08203 | 38941 ft | 451 kts | 78° |
| 2026-05-04 19:06 | 51.83208 | 10.18061 | 38934 ft | 451 kts | 78° |
| 2026-05-04 19:06 | 51.84633 | 10.27934 | 38930 ft | 452 kts | 78° |
| 2026-05-04 19:07 | 51.86050 | 10.37830 | 38929 ft | 451 kts | 78° |
| 2026-05-04 19:07 | 51.87449 | 10.47664 | 38924 ft | 451 kts | 77° |
| 2026-05-04 19:08 | 51.88842 | 10.57524 | 38925 ft | 451 kts | 77° |
| 2026-05-04 19:08 | 51.90004 | 10.65780 | 38925 ft | 450 kts | 78° |
| 2026-05-04 19:09 | 51.91614 | 10.77303 | 38924 ft | 449 kts | 78° |
| 2026-05-04 19:09 | 51.92980 | 10.87174 | 38916 ft | 450 kts | 78° |
| 2026-05-04 19:10 | 51.94349 | 10.97111 | 38919 ft | 450 kts | 78° |
| 2026-05-04 19:10 | 51.95694 | 11.06950 | 38926 ft | 450 kts | 78° |
| 2026-05-04 19:11 | 51.97041 | 11.16861 | 38920 ft | 450 kts | 78° |
| 2026-05-04 19:11 | 51.98365 | 11.26789 | 38916 ft | 449 kts | 80° |
| 2026-05-04 19:12 | 51.99604 | 11.41785 | 38924 ft | 448 kts | 84° |
| 2026-05-04 19:13 | 52.00373 | 11.51808 | 38927 ft | 448 kts | 83° |
| 2026-05-04 19:13 | 52.01162 | 11.61854 | 38932 ft | 448 kts | 83° |
| 2026-05-04 19:14 | 52.01935 | 11.71669 | 38929 ft | 448 kts | 84° |
| 2026-05-04 19:14 | 52.02699 | 11.81457 | 38936 ft | 447 kts | 84° |
| 2026-05-04 19:15 | 52.03463 | 11.91316 | 38942 ft | 448 kts | 84° |
| 2026-05-04 19:15 | 52.04231 | 12.01350 | 38948 ft | 448 kts | 84° |
| 2026-05-04 19:16 | 52.04988 | 12.11347 | 38938 ft | 447 kts | 84° |
| 2026-05-04 19:16 | 52.05735 | 12.21340 | 38951 ft | 447 kts | 84° |
| 2026-05-04 19:17 | 52.06475 | 12.31374 | 38951 ft | 447 kts | 84° |
| 2026-05-04 19:17 | 52.07207 | 12.41390 | 38947 ft | 446 kts | 84° |
| 2026-05-04 19:18 | 52.07926 | 12.51339 | 38950 ft | 447 kts | 84° |
| 2026-05-04 19:18 | 52.08644 | 12.61409 | 38951 ft | 447 kts | 84° |
| 2026-05-04 19:19 | 52.09353 | 12.71451 | 38949 ft | 447 kts | 84° |
| 2026-05-04 19:19 | 52.10041 | 12.81345 | 38948 ft | 447 kts | 85° |
| 2026-05-04 19:20 | 52.10729 | 12.91348 | 38945 ft | 446 kts | 85° |
| 2026-05-04 19:20 | 52.11413 | 13.01428 | 38946 ft | 447 kts | 85° |
| 2026-05-04 19:21 | 52.12083 | 13.11454 | 38929 ft | 447 kts | 84° |
| 2026-05-04 19:21 | 52.12743 | 13.21443 | 38923 ft | 446 kts | 84° |
| 2026-05-04 19:22 | 52.13398 | 13.31477 | 38921 ft | 446 kts | 84° |
| 2026-05-04 19:22 | 52.14042 | 13.41487 | 38923 ft | 446 kts | 84° |
| 2026-05-04 19:23 | 52.14681 | 13.51548 | 38923 ft | 446 kts | 84° |
| 2026-05-04 19:23 | 52.15311 | 13.61566 | 38927 ft | 447 kts | 84° |
| 2026-05-04 19:24 | 52.15922 | 13.71456 | 38922 ft | 447 kts | 85° |
| 2026-05-04 19:24 | 52.16514 | 13.81170 | 38922 ft | 447 kts | 85° |
| 2026-05-04 19:25 | 52.17115 | 13.91201 | 38928 ft | 446 kts | 85° |
| 2026-05-04 19:25 | 52.17710 | 14.01249 | 38925 ft | 446 kts | 85° |
| 2026-05-04 19:26 | 52.18296 | 14.11275 | 38921 ft | 446 kts | 85° |
| 2026-05-04 19:26 | 52.18875 | 14.21331 | 38923 ft | 445 kts | 85° |
| 2026-05-04 19:27 | 52.19441 | 14.31342 | 38925 ft | 446 kts | 85° |
| 2026-05-04 19:27 | 52.20002 | 14.41370 | 38927 ft | 445 kts | 85° |
| 2026-05-04 19:28 | 52.20554 | 14.51432 | 38921 ft | 445 kts | 85° |
| 2026-05-04 19:28 | 52.21092 | 14.61398 | 38915 ft | 445 kts | 85° |
| 2026-05-04 19:29 | 52.21622 | 14.71351 | 38923 ft | 446 kts | 86° |
| 2026-05-04 19:29 | 52.22060 | 14.79713 | 38926 ft | 446 kts | 86° |
| 2026-05-04 19:30 | 52.22660 | 14.91329 | 38922 ft | 446 kts | 86° |
| 2026-05-04 19:30 | 52.23169 | 15.01393 | 38914 ft | 446 kts | 86° |
| 2026-05-04 19:31 | 52.23667 | 15.11450 | 38916 ft | 445 kts | 86° |
| 2026-05-04 19:31 | 52.24159 | 15.21490 | 38921 ft | 445 kts | 85° |
| 2026-05-04 19:32 | 52.24643 | 15.31567 | 38920 ft | 446 kts | 85° |
| 2026-05-04 19:32 | 52.25117 | 15.41588 | 38918 ft | 446 kts | 86° |
| 2026-05-04 19:33 | 52.25582 | 15.51649 | 38921 ft | 445 kts | 86° |
| 2026-05-04 19:33 | 52.26041 | 15.61717 | 38923 ft | 445 kts | 86° |
| 2026-05-04 19:34 | 52.26489 | 15.71771 | 38920 ft | 446 kts | 86° |
| 2026-05-04 19:34 | 52.26916 | 15.81537 | 38924 ft | 446 kts | 86° |
| 2026-05-04 19:35 | 52.27349 | 15.91648 | 38918 ft | 446 kts | 86° |
| 2026-05-04 19:35 | 52.27770 | 16.01665 | 38921 ft | 446 kts | 86° |
| 2026-05-04 19:36 | 52.28186 | 16.11772 | 38928 ft | 446 kts | 86° |
| 2026-05-04 19:36 | 52.28594 | 16.21887 | 38928 ft | 446 kts | 86° |
| 2026-05-04 19:37 | 52.28994 | 16.31999 | 38922 ft | 445 kts | 86° |
| 2026-05-04 19:37 | 52.29382 | 16.42069 | 38934 ft | 445 kts | 86° |
| 2026-05-04 19:38 | 52.29763 | 16.52121 | 38934 ft | 444 kts | 86° |
| 2026-05-04 19:38 | 52.30133 | 16.62152 | 38938 ft | 444 kts | 86° |
| 2026-05-04 19:39 | 52.30485 | 16.71929 | 38928 ft | 443 kts | 87° |
| 2026-05-04 19:39 | 52.30841 | 16.82044 | 38932 ft | 443 kts | 87° |
| 2026-05-04 19:40 | 52.31186 | 16.92047 | 38940 ft | 443 kts | 87° |
| 2026-05-04 19:40 | 52.31522 | 17.02073 | 38937 ft | 443 kts | 88° |
| 2026-05-04 19:41 | 52.31848 | 17.12089 | 38937 ft | 442 kts | 88° |
| 2026-05-04 19:41 | 52.32011 | 17.22170 | 38932 ft | 442 kts | 90° |
| 2026-05-04 19:42 | 52.31997 | 17.32132 | 38930 ft | 441 kts | 91° |
| 2026-05-04 19:42 | 52.31992 | 17.42204 | 38930 ft | 442 kts | 90° |
| 2026-05-04 19:43 | 52.31997 | 17.52154 | 38930 ft | 442 kts | 90° |
| 2026-05-04 19:43 | 52.31998 | 17.62210 | 38932 ft | 441 kts | 90° |
| 2026-05-04 19:44 | 52.31994 | 17.72239 | 38926 ft | 441 kts | 91° |
| 2026-05-04 19:44 | 52.31981 | 17.82105 | 38920 ft | 441 kts | 91° |
| 2026-05-04 19:45 | 52.31960 | 17.92060 | 38919 ft | 441 kts | 91° |
| 2026-05-04 19:45 | 52.31931 | 18.02071 | 38921 ft | 442 kts | 91° |
| 2026-05-04 19:46 | 52.31892 | 18.12062 | 38925 ft | 442 kts | 91° |
| 2026-05-04 19:46 | 52.31844 | 18.22084 | 38926 ft | 441 kts | 91° |
| 2026-05-04 19:47 | 52.31790 | 18.32028 | 38925 ft | 441 kts | 91° |
| 2026-05-04 19:47 | 52.31726 | 18.42064 | 38925 ft | 441 kts | 90° |
| 2026-05-04 19:47 | 52.31691 | 18.47103 | 38745 ft | 442 kts | 90° |
| 2026-05-04 19:48 | 52.31655 | 18.52084 | 38360 ft | 440 kts | 90° |
| 2026-05-04 19:48 | 52.31617 | 18.57050 | 37845 ft | 437 kts | 90° |
| 2026-05-04 19:48 | 52.31577 | 18.61932 | 37298 ft | 435 kts | 90° |
| 2026-05-04 19:48 | 52.31535 | 18.66869 | 36786 ft | 434 kts | 91° |
| 2026-05-04 19:49 | 52.31489 | 18.71842 | 36261 ft | 435 kts | 91° |
| 2026-05-04 19:49 | 52.31446 | 18.76350 | 35761 ft | 437 kts | 91° |
| 2026-05-04 19:49 | 52.31396 | 18.81326 | 35152 ft | 441 kts | 91° |
| 2026-05-04 19:49 | 52.31343 | 18.86326 | 34435 ft | 445 kts | 91° |
| 2026-05-04 19:50 | 52.31289 | 18.91385 | 33729 ft | 447 kts | 91° |
| 2026-05-04 19:50 | 52.31233 | 18.96402 | 33130 ft | 446 kts | 91° |
| 2026-05-04 19:50 | 52.31175 | 19.01468 | 32501 ft | 446 kts | 91° |
| 2026-05-04 19:50 | 52.31115 | 19.06540 | 31904 ft | 444 kts | 91° |
| 2026-05-04 19:51 | 52.31053 | 19.11546 | 31313 ft | 443 kts | 91° |
| 2026-05-04 19:51 | 52.30990 | 19.16550 | 30699 ft | 443 kts | 91° |
| 2026-05-04 19:51 | 52.30925 | 19.21586 | 30093 ft | 443 kts | 91° |
| 2026-05-04 19:51 | 52.30858 | 19.26564 | 29476 ft | 443 kts | 91° |
| 2026-05-04 19:52 | 52.30788 | 19.31617 | 28823 ft | 444 kts | 91° |
| 2026-05-04 19:52 | 52.30714 | 19.36614 | 28191 ft | 444 kts | 91° |
| 2026-05-04 19:52 | 52.30637 | 19.41669 | 27554 ft | 446 kts | 91° |
| 2026-05-04 19:52 | 52.30560 | 19.46654 | 26883 ft | 446 kts | 91° |
| 2026-05-04 19:53 | 52.30481 | 19.51698 | 26188 ft | 446 kts | 92° |
| 2026-05-04 19:53 | 52.30398 | 19.56796 | 25457 ft | 447 kts | 92° |
| 2026-05-04 19:53 | 52.30313 | 19.61857 | 24691 ft | 448 kts | 92° |
| 2026-05-04 19:53 | 52.30227 | 19.66898 | 23926 ft | 449 kts | 93° |
| 2026-05-04 19:54 | 52.30140 | 19.71855 | 23159 ft | 450 kts | 93° |
| 2026-05-04 19:54 | 52.30056 | 19.76493 | 22424 ft | 452 kts | 93° |
| 2026-05-04 19:54 | 52.29964 | 19.81443 | 21672 ft | 452 kts | 93° |
| 2026-05-04 19:54 | 52.29869 | 19.86507 | 21137 ft | 445 kts | 92° |
| 2026-05-04 19:55 | 52.29772 | 19.91553 | 20596 ft | 442 kts | 93° |
| 2026-05-04 19:55 | 52.29674 | 19.96523 | 20059 ft | 438 kts | 92° |
| 2026-05-04 19:55 | 52.29576 | 20.01485 | 19514 ft | 433 kts | 93° |
| 2026-05-04 19:55 | 52.29477 | 20.06330 | 18964 ft | 429 kts | 93° |
| 2026-05-04 19:56 | 52.29376 | 20.11199 | 18407 ft | 425 kts | 92° |
| 2026-05-04 19:56 | 52.29275 | 20.15992 | 17850 ft | 421 kts | 93° |
| 2026-05-04 19:56 | 52.29173 | 20.20703 | 17293 ft | 417 kts | 93° |
| 2026-05-04 19:56 | 52.29071 | 20.25391 | 16704 ft | 414 kts | 93° |
| 2026-05-04 19:57 | 52.28966 | 20.30087 | 16103 ft | 411 kts | 93° |
| 2026-05-04 19:57 | 52.28861 | 20.34697 | 15518 ft | 408 kts | 93° |
| 2026-05-04 19:57 | 52.28753 | 20.39363 | 15054 ft | 408 kts | 93° |
| 2026-05-04 19:57 | 52.28643 | 20.43997 | 14896 ft | 409 kts | 93° |
| 2026-05-04 19:58 | 52.28532 | 20.48624 | 14935 ft | 410 kts | 93° |
| 2026-05-04 19:58 | 52.28418 | 20.53277 | 14926 ft | 410 kts | 94° |
| 2026-05-04 19:58 | 52.28303 | 20.57917 | 14740 ft | 406 kts | 94° |
| 2026-05-04 19:58 | 52.28189 | 20.62480 | 13962 ft | 409 kts | 94° |
| 2026-05-04 19:59 | 52.28070 | 20.67143 | 13047 ft | 413 kts | 95° |
| 2026-05-04 19:59 | 52.27961 | 20.71396 | 12636 ft | 404 kts | 95° |
| 2026-05-04 19:59 | 52.27841 | 20.75933 | 12203 ft | 395 kts | 95° |
| 2026-05-04 19:59 | 52.27620 | 20.80351 | 11729 ft | 385 kts | 104° |
| 2026-05-04 20:00 | 52.26574 | 20.84231 | 11314 ft | 367 kts | 130° |
| 2026-05-04 20:00 | 52.24858 | 20.87175 | 10920 ft | 355 kts | 141° |
| 2026-05-04 20:00 | 52.23044 | 20.89826 | 10510 ft | 348 kts | 142° |
| 2026-05-04 20:00 | 52.21243 | 20.92492 | 10076 ft | 343 kts | 141° |
| 2026-05-04 20:01 | 52.19523 | 20.95143 | 9657 ft | 338 kts | 140° |
| 2026-05-04 20:01 | 52.17860 | 20.97790 | 9246 ft | 333 kts | 139° |
| 2026-05-04 20:01 | 52.16241 | 21.00418 | 8844 ft | 328 kts | 139° |
| 2026-05-04 20:01 | 52.14665 | 21.03003 | 8453 ft | 322 kts | 139° |
| 2026-05-04 20:02 | 52.13088 | 21.05600 | 8062 ft | 317 kts | 138° |
| 2026-05-04 20:02 | 52.11552 | 21.08124 | 7687 ft | 312 kts | 138° |
| 2026-05-04 20:02 | 52.10041 | 21.10605 | 7316 ft | 307 kts | 138° |
| 2026-05-04 20:02 | 52.08550 | 21.13056 | 6966 ft | 302 kts | 137° |
| 2026-05-04 20:03 | 52.07111 | 21.15423 | 6546 ft | 293 kts | 137° |
| 2026-05-04 20:03 | 52.05707 | 21.17731 | 5980 ft | 285 kts | 137° |
| 2026-05-04 20:03 | 52.04326 | 21.20003 | 5389 ft | 278 kts | 137° |
| 2026-05-04 20:03 | 52.02988 | 21.22208 | 4949 ft | 267 kts | 138° |
| 2026-05-04 20:04 | 52.01556 | 21.23815 | 4683 ft | 245 kts | 168° |
| 2026-05-04 20:04 | 51.99939 | 21.23762 | 4464 ft | 227 kts | 205° |
| 2026-05-04 20:04 | 51.98687 | 21.22320 | 4146 ft | 220 kts | 234° |
| 2026-05-04 20:04 | 51.98054 | 21.20145 | 3841 ft | 215 kts | 260° |
| 2026-05-04 20:05 | 51.98132 | 21.17766 | 3545 ft | 214 kts | 287° |
| 2026-05-04 20:05 | 51.98916 | 21.15714 | 3255 ft | 216 kts | 314° |
| 2026-05-04 20:05 | 52.00090 | 21.14191 | 3013 ft | 212 kts | 314° |
| 2026-05-04 20:05 | 52.00952 | 21.12419 | 2983 ft | 192 kts | 291° |
| 2026-05-04 20:06 | 52.01421 | 21.10534 | 3015 ft | 171 kts | 300° |
| 2026-05-04 20:06 | 52.02244 | 21.09283 | 2970 ft | 158 kts | 321° |
| 2026-05-04 20:06 | 52.03152 | 21.08420 | 2941 ft | 142 kts | 326° |
| 2026-05-04 20:06 | 52.04026 | 21.07683 | 2843 ft | 143 kts | 327° |
| 2026-05-04 20:07 | 52.04906 | 21.06938 | 2648 ft | 140 kts | 326° |
| 2026-05-04 20:07 | 52.05767 | 21.06195 | 2463 ft | 140 kts | 326° |
| 2026-05-04 20:07 | 52.06633 | 21.05438 | 2290 ft | 140 kts | 326° |
| 2026-05-04 20:07 | 52.07479 | 21.04695 | 2110 ft | 139 kts | 326° |
| 2026-05-04 20:08 | 52.08332 | 21.03944 | 1915 ft | 139 kts | 326° |
| 2026-05-04 20:08 | 52.09183 | 21.03196 | 1730 ft | 139 kts | 326° |
| 2026-05-04 20:08 | 52.10037 | 21.02445 | 1542 ft | 138 kts | 326° |
| 2026-05-04 20:08 | 52.10885 | 21.01700 | 1367 ft | 139 kts | 328° |
| 2026-05-04 20:09 | 52.11727 | 21.00962 | 1198 ft | 137 kts | 327° |
| 2026-05-04 20:09 | 52.12548 | 21.00245 | 1007 ft | 133 kts | 329° |
| 2026-05-04 20:09 | 52.13366 | 20.99562 | 816 ft | 131 kts | 329° |
| 2026-05-04 20:09 | 52.14171 | 20.98851 | 626 ft | 132 kts | 328° |
| 2026-05-04 20:10 | 52.14973 | 20.98114 | 493 ft | 133 kts | 330° |
| 2026-05-04 20:10 | 52.15778 | 20.97403 | 360 ft | 130 kts | 330° |
| 2026-05-04 20:10 | 52.16489 | 20.96770 | 352 ft | 97 kts | 332° |
| 2026-05-04 20:10 | 52.16934 | 20.96382 | 353 ft | 49 kts | 331° |
| 2026-05-04 20:11 | 52.17149 | 20.96244 | 354 ft | 29 kts | 354° |
| 2026-05-04 20:11 | 52.17298 | 20.96246 | 355 ft | 12 kts | 1° |
| 2026-05-04 20:11 | 52.17384 | 20.96274 | 354 ft | 13 kts | 45° |
| 2026-05-04 20:11 | 52.17397 | 20.96402 | 353 ft | 13 kts | 154° |
| 2026-05-04 20:12 | 52.17291 | 20.96490 | 353 ft | 18 kts | 152° |
| 2026-05-04 20:12 | 52.17176 | 20.96586 | 353 ft | 14 kts | 153° |
| 2026-05-04 20:12 | 52.17125 | 20.96721 | 352 ft | 14 kts | 86° |
| 2026-05-04 20:12 | 52.17158 | 20.96816 | 352 ft | 9 kts | 104° |
| 2026-05-04 20:13 | 52.17103 | 20.96895 | 352 ft | 11 kts | 149° |
| 2026-05-04 20:13 | 52.17029 | 20.96961 | 352 ft | 12 kts | 153° |
| 2026-05-04 20:13 | 52.16942 | 20.97035 | 352 ft | 15 kts | 152° |
| 2026-05-04 20:13 | 52.16843 | 20.97120 | 351 ft | 15 kts | 152° |
| 2026-05-04 20:14 | 52.16803 | 20.97189 | 351 ft | 7 kts | 94° |
| 2026-05-04 20:14 | 52.16811 | 20.97275 | 352 ft | 6 kts | 78° |
| 2026-05-04 20:14 | 52.16816 | 20.97316 | 352 ft | 0 kts | 78° |
| 2026-05-04 20:14 | 52.16816 | 20.97317 | 352 ft | 0 kts | 78° |